createdAt,value
2019-05-28T00:00:53.125Z,43.20
2019-05-28T00:03:21.399Z,43.20
2019-05-28T00:05:50.009Z,43.20
2019-05-28T00:08:18.271Z,43.20
2019-05-28T00:10:46.528Z,43.10
2019-05-28T00:13:14.845Z,43.20
2019-05-28T00:15:43.141Z,43.20
2019-05-28T00:18:11.381Z,43.20
2019-05-28T00:20:39.669Z,43.20
2019-05-28T00:23:07.970Z,43.20
2019-05-28T00:25:36.233Z,43.30
2019-05-28T00:28:04.797Z,43.30
2019-05-28T00:30:33.063Z,43.30
2019-05-28T00:33:01.326Z,43.30
2019-05-28T00:35:29.574Z,43.40
2019-05-28T00:37:57.841Z,43.40
2019-05-28T00:40:26.089Z,43.40
2019-05-28T00:42:54.385Z,43.40
2019-05-28T00:45:22.648Z,43.40
2019-05-28T00:47:50.919Z,43.40
2019-05-28T00:50:19.190Z,43.50
2019-05-28T00:52:47.444Z,43.50
2019-05-28T00:55:17.579Z,43.50
2019-05-28T00:57:46.864Z,43.60
2019-05-28T01:00:15.566Z,43.50
2019-05-28T01:02:44.163Z,43.70
2019-05-28T01:05:12.418Z,43.50
2019-05-28T01:07:40.680Z,43.50
2019-05-28T01:10:09.084Z,43.60
2019-05-28T01:12:37.358Z,43.70
2019-05-28T01:15:06.844Z,43.60
2019-05-28T01:17:35.274Z,43.60
2019-05-28T01:20:07.803Z,43.60
2019-05-28T01:22:36.069Z,43.60
2019-05-28T01:25:05.767Z,44.30
2019-05-28T01:27:34.290Z,43.60
2019-05-28T01:30:02.806Z,44.30
2019-05-28T01:32:31.364Z,43.60
2019-05-28T01:34:59.677Z,43.70
2019-05-28T01:37:27.937Z,43.60
2019-05-28T01:39:56.201Z,43.70
2019-05-28T01:42:24.501Z,43.70
2019-05-28T01:44:52.763Z,43.70
2019-05-28T01:47:21.033Z,43.80
2019-05-28T01:49:49.312Z,43.80
2019-05-28T01:52:17.559Z,43.80
2019-05-28T01:54:45.861Z,43.80
2019-05-28T01:57:14.168Z,43.90
2019-05-28T01:59:42.442Z,43.80
2019-05-28T02:02:10.718Z,43.80
2019-05-28T02:04:38.965Z,43.80
2019-05-28T02:07:07.229Z,43.80
2019-05-28T02:09:35.489Z,43.90
2019-05-28T02:12:03.799Z,43.90
2019-05-28T02:14:32.079Z,43.90
2019-05-28T02:17:00.406Z,43.90
2019-05-28T02:19:28.733Z,44.00
2019-05-28T02:21:57.005Z,44.40
2019-05-28T02:24:25.271Z,43.90
2019-05-28T02:26:53.541Z,44.00
2019-05-28T02:29:22.055Z,44.00
2019-05-28T02:31:50.317Z,44.00
2019-05-28T02:34:18.605Z,44.00
2019-05-28T02:36:46.869Z,44.60
2019-05-28T02:39:15.151Z,44.00
2019-05-28T02:41:43.453Z,43.90
2019-05-28T02:44:11.697Z,43.90
2019-05-28T02:46:39.961Z,44.00
2019-05-28T02:49:08.229Z,44.00
2019-05-28T02:51:36.533Z,44.00
2019-05-28T02:54:04.789Z,44.10
2019-05-28T02:56:33.374Z,44.00
2019-05-28T02:59:01.908Z,44.00
2019-05-28T03:01:43.073Z,44.00
2019-05-28T03:04:00.667Z,44.10
2019-05-28T03:06:28.999Z,44.10
2019-05-28T03:08:57.625Z,44.10
2019-05-28T03:11:26.042Z,44.20
2019-05-28T03:13:54.335Z,44.10
2019-05-28T03:16:26.881Z,44.10
2019-05-28T03:18:55.233Z,44.20
2019-05-28T03:21:23.669Z,44.10
2019-05-28T03:23:52.001Z,44.10
2019-05-28T03:26:23.557Z,44.10
2019-05-28T03:28:50.241Z,44.20
2019-05-28T03:31:18.590Z,44.20
2019-05-28T03:33:46.871Z,44.10
2019-05-28T03:36:15.131Z,44.10
2019-05-28T03:38:44.625Z,44.20
2019-05-28T03:41:13.617Z,44.20
2019-05-28T03:43:41.922Z,44.20
2019-05-28T03:46:10.172Z,44.20
2019-05-28T03:48:38.529Z,44.20
2019-05-28T03:51:06.851Z,44.20
2019-05-28T03:53:35.120Z,44.20
2019-05-28T03:56:03.530Z,44.20
2019-05-28T03:58:32.052Z,44.10
2019-05-28T04:01:00.362Z,44.20
2019-05-28T04:03:28.632Z,44.20
2019-05-28T04:05:56.922Z,44.10
2019-05-28T04:08:25.168Z,44.20
2019-05-28T04:10:53.504Z,44.10
2019-05-28T04:13:21.764Z,44.10
2019-05-28T04:15:50.042Z,44.10
2019-05-28T04:18:18.321Z,44.10
2019-05-28T04:20:46.581Z,44.10
2019-05-28T04:23:15.258Z,44.10
2019-05-28T04:25:45.165Z,44.10
2019-05-28T04:28:13.426Z,44.20
2019-05-28T04:30:43.129Z,44.10
2019-05-28T04:33:11.397Z,44.20
2019-05-28T04:35:39.716Z,44.20
2019-05-28T04:38:07.977Z,44.20
2019-05-28T04:40:36.229Z,44.10
2019-05-28T04:43:04.598Z,44.10
2019-05-28T04:45:32.977Z,44.60
2019-05-28T04:48:01.242Z,44.10
2019-05-28T04:50:29.499Z,44.10
2019-05-28T04:52:57.806Z,44.10
2019-05-28T04:55:26.104Z,44.20
2019-05-28T04:57:54.353Z,44.10
2019-05-28T05:00:22.718Z,44.20
2019-05-28T05:02:59.257Z,44.10
2019-05-28T05:05:21.052Z,44.10
2019-05-28T05:07:49.433Z,44.10
2019-05-28T05:10:19.360Z,44.20
2019-05-28T05:12:48.007Z,44.20
2019-05-28T05:15:16.417Z,44.10
2019-05-28T05:17:44.689Z,44.10
2019-05-28T05:20:13.050Z,44.20
2019-05-28T05:22:41.491Z,44.20
2019-05-28T05:25:09.773Z,44.10
2019-05-28T05:27:38.052Z,44.20
2019-05-28T05:30:06.792Z,44.10
2019-05-28T05:32:35.130Z,44.10
2019-05-28T05:35:03.507Z,44.20
2019-05-28T05:37:31.748Z,44.10
2019-05-28T05:40:00.025Z,44.10
2019-05-28T05:42:28.733Z,44.20
2019-05-28T05:44:57.110Z,44.30
2019-05-28T05:47:25.379Z,44.30
2019-05-28T05:49:53.638Z,44.20
2019-05-28T05:52:22.218Z,44.30
2019-05-28T05:54:50.509Z,44.30
2019-05-28T05:57:18.835Z,44.90
2019-05-28T05:59:47.105Z,44.30
2019-05-28T06:02:15.461Z,44.30
2019-05-28T06:04:43.961Z,44.30
2019-05-28T06:07:12.208Z,44.30
2019-05-28T06:09:40.498Z,44.30
2019-05-28T06:12:09.064Z,44.30
2019-05-28T06:14:38.179Z,44.30
2019-05-28T06:17:06.577Z,44.40
2019-05-28T06:19:34.838Z,44.40
2019-05-28T06:22:03.524Z,44.40
2019-05-28T06:24:31.788Z,44.40
2019-05-28T06:27:00.066Z,44.40
2019-05-28T06:29:28.313Z,44.40
2019-05-28T06:31:56.557Z,44.40
2019-05-28T06:34:24.929Z,44.40
2019-05-28T06:36:53.559Z,44.40
2019-05-28T06:39:21.889Z,44.40
2019-05-28T06:41:50.165Z,44.50
2019-05-28T06:44:18.514Z,44.40
2019-05-28T06:46:46.769Z,44.40
2019-05-28T06:49:15.056Z,44.40
2019-05-28T06:51:43.321Z,44.40
2019-05-28T06:54:12.041Z,44.40
2019-05-28T06:56:40.431Z,44.40
2019-05-28T06:59:08.715Z,45.10
2019-05-28T07:01:37.026Z,44.40
2019-05-28T07:04:13.827Z,44.40
2019-05-28T07:06:35.668Z,44.40
2019-05-28T07:09:05.446Z,44.50
2019-05-28T07:11:33.732Z,44.40
2019-05-28T07:14:01.974Z,44.50
2019-05-28T07:16:30.283Z,44.40
2019-05-28T07:18:58.605Z,44.50
2019-05-28T07:21:27.251Z,44.50
2019-05-28T07:23:55.522Z,44.50
2019-05-28T07:26:23.772Z,44.50
2019-05-28T07:28:52.060Z,44.50
2019-05-28T07:31:20.321Z,44.90
2019-05-28T07:33:48.576Z,44.60
2019-05-28T07:36:16.838Z,44.50
2019-05-28T07:38:45.391Z,44.50
2019-05-28T07:41:14.075Z,44.50
2019-05-28T07:43:42.682Z,44.60
2019-05-28T07:46:10.941Z,44.50
2019-05-28T07:48:39.194Z,44.50
2019-05-28T07:51:07.603Z,44.50
2019-05-28T07:53:40.068Z,44.50
2019-05-28T07:56:05.946Z,44.50
2019-05-28T07:58:34.285Z,44.50
2019-05-28T08:01:02.635Z,44.50
2019-05-28T08:03:31.222Z,44.50
2019-05-28T08:05:59.810Z,44.50
2019-05-28T08:08:28.070Z,44.50
2019-05-28T08:10:56.601Z,44.50
2019-05-28T08:13:39.621Z,44.50
2019-05-28T08:15:54.810Z,44.40
2019-05-28T08:18:23.098Z,44.40
2019-05-28T08:20:51.348Z,44.40
2019-05-28T08:23:19.637Z,44.40
2019-05-28T08:25:48.290Z,44.40
2019-05-28T08:28:20.340Z,44.30
2019-05-28T08:30:46.631Z,44.30
2019-05-28T08:33:14.903Z,44.40
2019-05-28T08:35:43.154Z,44.40
2019-05-28T08:38:11.421Z,44.30
2019-05-28T08:40:39.667Z,44.40
2019-05-28T08:43:08.012Z,44.40
2019-05-28T08:45:36.261Z,44.40
2019-05-28T08:48:04.663Z,44.30
2019-05-28T08:50:34.927Z,44.30
2019-05-28T08:53:03.281Z,44.30
2019-05-28T08:55:31.905Z,44.30
2019-05-28T08:58:01.698Z,44.30
2019-05-28T09:00:38.086Z,44.30
2019-05-28T09:03:06.370Z,44.40
2019-05-28T09:05:34.658Z,44.90
2019-05-28T09:08:03.247Z,44.30
2019-05-28T09:10:31.795Z,44.20
2019-05-28T09:13:00.135Z,44.30
2019-05-28T09:15:28.453Z,44.90
2019-05-28T09:17:56.975Z,44.30
2019-05-28T09:20:25.213Z,44.30
2019-05-28T09:22:53.594Z,44.20
2019-05-28T09:25:21.912Z,44.30
2019-05-28T09:27:50.176Z,44.20
2019-05-28T09:30:19.096Z,44.20
2019-05-28T09:32:47.480Z,44.20
2019-05-28T09:35:16.196Z,44.20
2019-05-28T09:37:44.553Z,44.20
2019-05-28T09:40:12.835Z,44.30
2019-05-28T09:42:41.081Z,44.30
2019-05-28T09:45:21.782Z,44.30
2019-05-28T09:47:39.329Z,44.20
2019-05-28T09:50:27.005Z,44.20
2019-05-28T09:52:53.610Z,44.30
2019-05-28T09:55:08.999Z,44.20
2019-05-28T09:57:46.831Z,44.20
2019-05-28T10:00:10.727Z,44.20
2019-05-28T10:02:39.065Z,44.30
2019-05-28T10:05:07.981Z,44.30
2019-05-28T10:07:36.338Z,44.30
2019-05-28T10:10:08.884Z,44.20
2019-05-28T10:12:37.154Z,44.20
2019-05-28T10:15:06.837Z,44.20
2019-05-28T10:17:35.306Z,44.10
2019-05-28T10:20:05.633Z,44.20
2019-05-28T10:22:33.881Z,44.30
2019-05-28T10:25:02.127Z,44.30
2019-05-28T10:27:30.679Z,44.00
2019-05-28T10:29:58.927Z,44.10
2019-05-28T10:32:27.460Z,43.90
2019-05-28T10:35:03.951Z,43.70
2019-05-28T10:37:25.804Z,43.80
2019-05-28T10:39:54.069Z,43.60
2019-05-28T10:42:22.362Z,43.50
2019-05-28T10:44:50.688Z,43.50
2019-05-28T10:47:18.995Z,43.40
2019-05-28T10:49:50.751Z,43.30
2019-05-28T10:52:17.326Z,43.30
2019-05-28T10:54:45.600Z,43.40
2019-05-28T10:57:13.976Z,43.30
2019-05-28T10:59:42.322Z,43.30
2019-05-28T11:02:10.573Z,43.10
2019-05-28T11:04:39.155Z,43.10
2019-05-28T11:07:07.425Z,43.10
2019-05-28T11:09:35.708Z,43.10
2019-05-28T11:12:04.699Z,43.10
2019-05-28T11:14:32.955Z,43.00
2019-05-28T11:17:01.386Z,43.00
2019-05-28T11:19:29.812Z,43.10
2019-05-28T11:21:58.094Z,43.00
2019-05-28T11:24:26.532Z,43.00
2019-05-28T11:26:55.171Z,43.00
2019-05-28T11:29:23.409Z,43.00
2019-05-28T11:31:51.681Z,42.90
2019-05-28T11:34:19.941Z,42.90
2019-05-28T11:36:48.204Z,42.90
2019-05-28T11:39:16.478Z,42.90
2019-05-28T11:41:44.784Z,42.90
2019-05-28T11:44:13.137Z,42.80
2019-05-28T11:46:41.409Z,42.70
2019-05-28T11:49:09.690Z,42.70
2019-05-28T11:51:37.945Z,42.70
2019-05-28T11:54:06.214Z,42.50
2019-05-28T11:56:34.473Z,42.30
2019-05-28T11:59:03.077Z,42.10
2019-05-28T12:01:35.025Z,39.10
2019-05-28T12:04:01.336Z,39.50
2019-05-28T12:06:29.586Z,39.80
2019-05-28T12:08:58.081Z,40.10
2019-05-28T12:11:26.442Z,40.10
2019-05-28T12:13:54.747Z,39.70
2019-05-28T12:16:23.372Z,40.20
2019-05-28T12:18:51.617Z,40.20
2019-05-28T12:21:19.962Z,40.30
2019-05-28T12:23:48.653Z,40.50
2019-05-28T12:26:16.907Z,40.60
2019-05-28T12:28:45.182Z,40.80
2019-05-28T12:31:13.446Z,40.70
2019-05-28T12:33:41.698Z,37.90
2019-05-28T12:36:10.452Z,38.50
2019-05-28T12:38:38.741Z,39.00
2019-05-28T12:41:07.016Z,39.00
2019-05-28T12:43:35.272Z,39.00
2019-05-28T12:46:03.810Z,39.20
2019-05-28T12:48:32.112Z,39.70
2019-05-28T12:51:02.355Z,38.90
2019-05-28T12:53:48.199Z,38.90
2019-05-28T12:56:00.728Z,38.90
2019-05-28T12:58:41.592Z,38.70
2019-05-28T13:00:58.965Z,38.70
2019-05-28T13:03:27.287Z,38.50
2019-05-28T13:05:55.566Z,38.40
2019-05-28T13:08:23.810Z,38.40
2019-05-28T13:10:52.159Z,39.20
2019-05-28T13:13:20.423Z,38.60
2019-05-28T13:15:48.719Z,38.70
2019-05-28T13:18:17.123Z,38.80
2019-05-28T13:20:48.033Z,38.60
2019-05-28T13:23:15.881Z,38.60
2019-05-28T13:25:44.175Z,38.40
2019-05-28T13:28:12.831Z,38.40
2019-05-28T13:30:41.114Z,38.40
2019-05-28T13:33:09.371Z,38.40
2019-05-28T13:35:37.633Z,38.40
2019-05-28T13:38:23.526Z,38.10
2019-05-28T13:40:36.130Z,38.20
2019-05-28T13:43:04.412Z,38.40
2019-05-28T13:45:32.730Z,38.20
2019-05-28T13:48:01.028Z,38.40
2019-05-28T13:50:29.635Z,38.40
2019-05-28T13:52:58.291Z,38.40
2019-05-28T13:55:26.609Z,38.40
2019-05-28T13:57:55.207Z,38.20
2019-05-28T14:00:24.552Z,38.00
2019-05-28T14:02:53.102Z,37.90
2019-05-28T14:05:21.639Z,38.00
2019-05-28T14:07:50.308Z,38.00
2019-05-28T14:10:18.614Z,38.00
2019-05-28T14:12:47.223Z,38.00
2019-05-28T14:15:15.805Z,37.70
2019-05-28T14:17:44.327Z,37.50
2019-05-28T14:20:13.076Z,37.60
2019-05-28T14:22:41.484Z,37.60
2019-05-28T14:25:10.090Z,37.70
2019-05-28T14:27:38.469Z,37.50
2019-05-28T14:30:07.950Z,37.40
2019-05-28T14:32:36.220Z,37.60
2019-05-28T14:35:08.354Z,37.40
2019-05-28T14:37:36.763Z,37.20
2019-05-28T14:40:06.034Z,37.30
2019-05-28T14:42:34.373Z,37.30
2019-05-28T14:45:02.635Z,37.40
2019-05-28T14:47:30.919Z,37.60
2019-05-28T14:49:59.165Z,37.60
2019-05-28T14:52:27.428Z,37.60
2019-05-28T14:54:56.031Z,37.60
2019-05-28T14:57:24.379Z,37.60
2019-05-28T14:59:52.929Z,37.60
2019-05-28T15:02:21.741Z,37.30
2019-05-28T15:04:50.247Z,37.10
2019-05-28T15:07:18.682Z,37.30
2019-05-28T15:09:47.068Z,37.20
2019-05-28T15:12:15.425Z,36.90
2019-05-28T15:14:43.949Z,37.00
2019-05-28T15:17:12.488Z,36.80
2019-05-28T15:19:40.821Z,37.20
2019-05-28T15:22:09.414Z,37.10
2019-05-28T15:24:38.067Z,37.00
2019-05-28T15:27:06.352Z,37.00
2019-05-28T15:29:34.648Z,37.30
2019-05-28T15:32:03.057Z,37.30
2019-05-28T15:34:31.612Z,37.20
2019-05-28T15:36:59.928Z,37.20
2019-05-28T15:39:39.100Z,37.10
2019-05-28T15:41:58.238Z,37.20
2019-05-28T15:44:26.788Z,37.30
2019-05-28T15:46:55.127Z,37.50
2019-05-28T15:49:23.370Z,37.20
2019-05-28T15:52:06.740Z,37.30
2019-05-28T15:54:21.930Z,37.30
2019-05-28T15:56:50.179Z,37.60
2019-05-28T15:59:18.881Z,37.30
2019-05-28T16:01:47.135Z,37.60
2019-05-28T16:04:15.406Z,37.30
2019-05-28T16:06:44.013Z,37.40
2019-05-28T16:09:13.038Z,37.10
2019-05-28T16:11:41.434Z,36.90
2019-05-28T16:14:10.074Z,37.10
2019-05-28T16:16:38.671Z,37.20
2019-05-28T16:19:07.492Z,37.20
2019-05-28T16:21:35.765Z,37.30
2019-05-28T16:24:04.024Z,37.20
2019-05-28T16:26:32.624Z,37.40
2019-05-28T16:29:01.165Z,36.70
2019-05-28T16:31:29.755Z,36.90
2019-05-28T16:33:58.041Z,37.00
2019-05-28T16:36:26.339Z,36.90
2019-05-28T16:38:54.913Z,37.00
2019-05-28T16:41:24.042Z,36.90
2019-05-28T16:43:52.281Z,37.00
2019-05-28T16:46:20.602Z,37.10
2019-05-28T16:48:48.932Z,37.10
2019-05-28T16:51:17.185Z,37.20
2019-05-28T16:53:45.705Z,37.30
2019-05-28T16:56:14.321Z,37.40
2019-05-28T16:58:42.593Z,37.40
2019-05-28T17:01:22.460Z,37.50
2019-05-28T17:03:40.825Z,37.50
2019-05-28T17:06:09.082Z,37.60
2019-05-28T17:08:37.371Z,37.70
2019-05-28T17:11:05.682Z,38.00
2019-05-28T17:13:33.955Z,37.90
2019-05-28T17:16:02.367Z,37.90
2019-05-28T17:18:30.620Z,38.00
2019-05-28T17:20:58.869Z,37.90
2019-05-28T17:23:27.133Z,37.90
2019-05-28T17:25:55.376Z,38.10
2019-05-28T17:28:24.142Z,38.10
2019-05-28T17:30:52.685Z,38.10
2019-05-28T17:33:20.936Z,38.20
2019-05-28T17:35:49.269Z,38.30
2019-05-28T17:38:17.558Z,38.40
2019-05-28T17:40:48.712Z,38.30
2019-05-28T17:43:15.897Z,38.40
2019-05-28T17:45:44.169Z,38.40
2019-05-28T17:48:12.511Z,38.50
2019-05-28T17:50:40.773Z,38.50
2019-05-28T17:53:09.021Z,38.60
2019-05-28T17:55:37.351Z,38.50
2019-05-28T17:58:05.621Z,38.60
2019-05-28T18:00:33.942Z,38.60
2019-05-28T18:03:02.217Z,38.70
2019-05-28T18:05:30.467Z,38.80
2019-05-28T18:07:58.715Z,38.80
2019-05-28T18:10:27.150Z,38.80
2019-05-28T18:12:55.530Z,38.90
2019-05-28T18:15:23.889Z,38.90
2019-05-28T18:17:52.746Z,38.90
2019-05-28T18:20:21.073Z,38.90
2019-05-28T18:22:49.683Z,39.10
2019-05-28T18:25:20.178Z,39.10
2019-05-28T18:27:47.933Z,39.20
2019-05-28T18:30:16.403Z,39.20
2019-05-28T18:32:44.647Z,39.30
2019-05-28T18:35:13.199Z,39.30
2019-05-28T18:37:41.560Z,39.30
2019-05-28T18:40:10.857Z,39.30
2019-05-28T18:42:39.322Z,39.30
2019-05-28T18:45:08.295Z,39.40
2019-05-28T18:47:36.888Z,39.50
2019-05-28T18:50:07.497Z,39.60
2019-05-28T18:52:35.816Z,39.50
2019-05-28T18:55:05.468Z,39.60
2019-05-28T18:57:33.709Z,39.60
2019-05-28T19:00:02.023Z,39.50
2019-05-28T19:02:30.609Z,39.60
2019-05-28T19:04:58.859Z,39.60
2019-05-28T19:07:27.469Z,39.70
2019-05-28T19:09:55.791Z,39.80
2019-05-28T19:12:24.109Z,39.80
2019-05-28T19:14:52.368Z,39.90
2019-05-28T19:17:20.633Z,39.90
2019-05-28T19:19:48.886Z,39.90
2019-05-28T19:22:17.154Z,40.00
2019-05-28T19:24:45.684Z,39.90
2019-05-28T19:27:13.957Z,40.00
2019-05-28T19:29:42.201Z,40.00
2019-05-28T19:32:10.752Z,40.10
2019-05-28T19:34:39.009Z,40.10
2019-05-28T19:37:07.340Z,40.10
2019-05-28T19:39:39.030Z,40.20
2019-05-28T19:42:09.690Z,40.10
2019-05-28T19:44:35.857Z,40.20
2019-05-28T19:47:04.141Z,40.20
2019-05-28T19:49:32.489Z,40.20
2019-05-28T19:52:01.054Z,40.20
2019-05-28T19:54:29.332Z,40.30
2019-05-28T19:56:57.648Z,40.30
2019-05-28T19:59:26.381Z,40.30
2019-05-28T20:01:54.626Z,40.40
2019-05-28T20:04:22.902Z,40.40
2019-05-28T20:06:51.184Z,40.40
2019-05-28T20:09:19.527Z,40.40
2019-05-28T20:11:47.781Z,40.30
2019-05-28T20:14:16.075Z,40.40
2019-05-28T20:16:45.162Z,40.40
2019-05-28T20:19:13.537Z,40.50
2019-05-28T20:21:41.781Z,40.50
2019-05-28T20:24:10.083Z,40.50
2019-05-28T20:26:38.713Z,40.60
2019-05-28T20:29:08.694Z,40.60
2019-05-28T20:31:37.103Z,40.60
2019-05-28T20:34:05.614Z,40.60
2019-05-28T20:36:33.897Z,40.70
2019-05-28T20:39:02.142Z,40.70
2019-05-28T20:41:30.390Z,40.70
2019-05-28T20:43:58.717Z,40.80
2019-05-28T20:46:27.053Z,40.70
2019-05-28T20:48:55.317Z,40.80
2019-05-28T20:51:23.613Z,40.80
2019-05-28T20:53:51.902Z,40.80
2019-05-28T20:56:20.441Z,40.80
2019-05-28T20:58:49.603Z,40.80
2019-05-28T21:01:17.940Z,40.80
2019-05-28T21:03:46.240Z,40.80
2019-05-28T21:06:14.509Z,40.90
2019-05-28T21:08:42.749Z,40.90
2019-05-28T21:11:11.030Z,40.90
2019-05-28T21:13:39.392Z,40.90
2019-05-28T21:16:07.722Z,40.90
2019-05-28T21:18:36.018Z,41.00
2019-05-28T21:21:04.381Z,41.00
2019-05-28T21:23:32.903Z,41.00
2019-05-28T21:26:01.153Z,41.00
2019-05-28T21:28:29.437Z,41.10
2019-05-28T21:30:58.645Z,40.90
2019-05-28T21:33:27.467Z,41.00
2019-05-28T21:35:55.740Z,41.10
2019-05-28T21:38:24.027Z,41.70
2019-05-28T21:40:53.511Z,41.00
2019-05-28T21:43:22.207Z,41.70
2019-05-28T21:45:50.554Z,41.10
2019-05-28T21:48:18.917Z,41.10
2019-05-28T21:50:47.169Z,41.10
2019-05-28T21:53:15.441Z,41.10
2019-05-28T21:55:44.082Z,41.20
2019-05-28T21:58:12.326Z,41.20
2019-05-28T22:00:56.004Z,41.30
2019-05-28T22:03:24.313Z,41.20
2019-05-28T22:05:52.573Z,41.20
2019-05-28T22:08:20.821Z,41.30
2019-05-28T22:10:49.112Z,41.20
2019-05-28T22:13:22.160Z,41.40
2019-05-28T22:15:47.681Z,41.40
2019-05-28T22:18:16.063Z,41.40
2019-05-28T22:20:44.300Z,41.40
2019-05-28T22:23:12.550Z,41.40
2019-05-28T22:25:41.154Z,41.40
2019-05-28T22:28:09.416Z,41.40
2019-05-28T22:30:37.681Z,41.40
2019-05-28T22:33:06.096Z,41.50
2019-05-28T22:35:34.658Z,41.50
2019-05-28T22:38:03.365Z,41.50
2019-05-28T22:40:31.842Z,41.50
2019-05-28T22:43:00.596Z,41.50
2019-05-28T22:45:29.192Z,41.60
2019-05-28T22:47:57.445Z,41.60
2019-05-28T22:50:25.710Z,41.50
2019-05-28T22:52:53.971Z,41.70
2019-05-28T22:55:22.493Z,41.60
2019-05-28T22:57:50.724Z,41.60
2019-05-28T23:00:19.369Z,41.70
2019-05-28T23:02:47.612Z,41.60
2019-05-28T23:05:15.884Z,41.60
2019-05-28T23:07:44.124Z,41.60
2019-05-28T23:10:12.388Z,41.60
2019-05-28T23:12:41.064Z,41.60
2019-05-28T23:15:10.491Z,41.60
2019-05-28T23:17:38.928Z,41.60
2019-05-28T23:20:11.188Z,41.60
2019-05-28T23:22:39.744Z,41.70
2019-05-28T23:25:09.766Z,41.70
2019-05-28T23:27:38.231Z,41.60
2019-05-28T23:30:20.750Z,41.60
2019-05-28T23:32:36.960Z,41.70
2019-05-28T23:35:06.837Z,41.80
2019-05-28T23:37:35.113Z,41.80
2019-05-28T23:40:05.136Z,41.80
2019-05-28T23:42:33.691Z,41.80
2019-05-28T23:45:01.963Z,41.80
2019-05-28T23:47:30.225Z,41.80
2019-05-28T23:49:58.469Z,41.90
2019-05-28T23:52:27.001Z,42.00
2019-05-28T23:54:55.320Z,41.90
2019-05-28T23:57:23.656Z,41.90
2019-05-28T23:59:52.242Z,41.90
